To NAV CANADA Home Page Login to a new session Search on AWWS site Feedback and Comments Disclaimer Vers la page française équivalente Tips FAQ What's new on the site To the Forecasts and Observations / NOTAM section To "File a Flight Plan" website Publications and other links Update of the User's profile FIC Telephone Numbers My Weather Data Folder Route Weather Data Regional Weather Data Local Weather Data To the Forecasts and Observations / NOTAM section
Request Generated 07/08/2015 at 00:18:06 UTC . Weather information available at that time is displayed.

METAR/TAF

CARTWRIGHT/NL    

METAR CWCA 080000Z 15009KT 15SM BKN030 OVC070 14/11 A2991 RMK SC6AC2
SLP127=
SPECI CWCA 072324Z 15007KT 15SM -RA BKN030 OVC070 14/11 A2992 RMK
SC6AC2 SLP131=
METAR CWCA 072300Z 15009G15KT 15SM BKN030 OVC070 15/11 A2991 RMK
SC6AC2 SLP130=
SPECI CWCA 072241Z CCB 15009KT 15SM -RA BKN030 OVC070 15/11 A2991 RMK
SC6AC2 SLP128 DENSITY ALT 100FT=
SPECI CWCA 072241Z CCA 15009KT 15SM -RA BKN030 OVC070 15/11 A2991 RMK
SC6AC2 SLP128 DENSITY ALT 100FT=
SPECI CWCA 072241Z 15009KT 15SM -RA BKN030 OVC070 15/ A2991 RMK
SC6AC2 SLP128 DENSITY ALT 100FT=
SPECI CWCA 072232Z 15008KT 15SM BKN030 OVC070 16/11 A2991 RMK SC6AC2
SLP128 DENSITY ALT 100FT=
METAR CWCA 072200Z CCA 16011KT 15SM -RA OVC040 17/11 A2991 RMK SC8
SLP129 DENSITY ALT 200FT=
METAR CWCA 072200Z 16011KT 15SM -RA OVC040 17/11 A2991 RMK SC8 SLP129
DENSITY ALT 200FT=

TAF CYCA 071938Z 0720/0808 ADVISORY OFFSITE 16012G22KT P6SM FEW040
OVC090 TEMPO 0720/0808 P6SM -SHRA OVC040
RMK NXT FCST BY 080200Z=
Your time UTC time
Weather data provided by Environment Canada and NAV CANADA